Other Surface Observations
Issued by NWS

Current Version | Previous Version | Text Only | Print | Product List | Glossary On
Versions: 1 2 3 4 5 6 7 8 9 10 11 12 13 14 15 16 17 18 19 20 21 22 23 24 25 26 27 28 29 30 31 32 33 34 35 36 37 38 39 40 41 42 43 44 45 46 47 48 49 50
000
SXUS52 KWBC 250849
OSOGX
:SHEF ENCODED 6-MINUTE NOS MET DATA
:NATIONAL WATER LEVEL OBSERVATION NETWORK (NWLON)
:TA(AIR TEMP DEG F)  SLP(SEA LEVEL PRESSURE INCHES)
:UD(WIND DIRECTION WHOLE DEGREES) US(WIND SPEED MPH)
:TW(WATER TEMP DEG F) UG(WIND GUSTS MPH) WC(CONDUCTIVITY uMHOS/CM)
:XV(VISIBILITY SM)
:-9999 (MISSING VALUES)
:PROVIDED BY DOC/NOAA/NOS/CO-OPS, (301) 713-2540
:corms@noaa.gov
.E NPSF1 20220925 Z DH0836/TAIRP/DIN06/   79/   79
.E NPSF1 20220925 Z DH0836/PLIRP/DIN06/29.84/29.84
.E NPSF1 20220925 Z DH0836/USIRP/DIN06/    6/    6
.E NPSF1 20220925 Z DH0836/UDIRP/DIN06/   55/   55
.E NPSF1 20220925 Z DH0836/UGIRP/DIN06/    8/    9
.E NPSF1 20220925 Z DH0836/TWIRP/DIN06/   87/   87
.E NPSF1 20220925 Z DH0830/TAIRG/DIN06/   79/   79
.E NPSF1 20220925 Z DH0830/PLIRG/DIN06/29.84/29.84
.E NPSF1 20220925 Z DH0830/USIRG/DIN06/    5/    6
.E NPSF1 20220925 Z DH0830/UDIRG/DIN06/   47/   55
.E NPSF1 20220925 Z DH0830/UGIRG/DIN06/    7/    8
.E NPSF1 20220925 Z DH0830/TWIRG/DIN06/   87/   87
.E FMRF1 20220925 Z DH0836/TAIRP/DIN06/   78/   77
.E FMRF1 20220925 Z DH0836/PLIRP/DIN06/29.85/29.86
.E FMRF1 20220925 Z DH0836/USIRP/DIN06/    5/    6
.E FMRF1 20220925 Z DH0836/UDIRP/DIN06/   64/   62
.E FMRF1 20220925 Z DH0836/UGIRP/DIN06/    7/    8
.E FMRF1 20220925 Z DH0836/TWIRP/DIN06/   85/   85
.E FMRF1 20220925 Z DH0830/TAIRG/DIN06/   78/   78
.E FMRF1 20220925 Z DH0830/PLIRG/DIN06/29.85/29.85
.E FMRF1 20220925 Z DH0830/USIRG/DIN06/    5/    5
.E FMRF1 20220925 Z DH0830/UDIRG/DIN06/   59/   64
.E FMRF1 20220925 Z DH0830/UGIRG/DIN06/    8/    7
.E FMRF1 20220925 Z DH0830/TWIRG/DIN06/   85/   85
.E PMAF1 20220925 Z DH0836/TAIRP/DIN06/   74/   74
.E PMAF1 20220925 Z DH0836/PLIRP/DIN06/29.91/29.91
.E PMAF1 20220925 Z DH0836/TWIRP/DIN06/   82/   82
.E PMAF1 20220925 Z DH0830/TAIRG/DIN06/   74/   74
.E PMAF1 20220925 Z DH0830/PLIRG/DIN06/29.90/29.91
.E PMAF1 20220925 Z DH0830/TWIRG/DIN06/   82/   82
.E MTBF1 20220925 Z DH0830/TAIRG/DIN06/   77/   77
.E MTBF1 20220925 Z DH0830/USIRG/DIN06/   11/   12
.E MTBF1 20220925 Z DH0830/UDIRG/DIN06/  101/   95
.E MTBF1 20220925 Z DH0830/UGIRG/DIN06/   14/   14
.E MTBF1 20220925 Z DH0830/XVIRG/DIN06/6.20/6.20
.E SAPF1 20220925 Z DH0836/TAIRP/DIN06/   79/   79
.E SAPF1 20220925 Z DH0836/PLIRP/DIN06/29.92/29.92
.E SAPF1 20220925 Z DH0836/USIRP/DIN06/    6/    6
.E SAPF1 20220925 Z DH0836/UDIRP/DIN06/   75/   72
.E SAPF1 20220925 Z DH0836/UGIRP/DIN06/   10/   11
.E SAPF1 20220925 Z DH0836/TWIRP/DIN06/   85/   85
.A SAPF1 20220925 Z DH0830/TAIRG    79/UGIRG    11/PLIRG 29.91/UDIRG    79/USIRG     6/TWIRG    85/WCIRG -9999
.E GCTF1 20220925 Z DH0836/TAIRP/DIN06/   78/   78
.E GCTF1 20220925 Z DH0836/PLIRP/DIN06/29.88/29.88
.E OPTF1 20220925 Z DH0836/TAIRP/DIN06/   76/   76
.E OPTF1 20220925 Z DH0836/PLIRP/DIN06/29.91/29.91
.E OPTF1 20220925 Z DH0836/USIRP/DIN06/    3/    3
.E OPTF1 20220925 Z DH0836/UDIRP/DIN06/   38/   38
.E OPTF1 20220925 Z DH0836/UGIRP/DIN06/    6/    6
.E OPTF1 20220925 Z DH0836/TWIRP/DIN06/   88/   88
.E OPTF1 20220925 Z DH0830/TAIRG/DIN06/   76/   76
.E OPTF1 20220925 Z DH0830/PLIRG/DIN06/29.91/29.91
.E OPTF1 20220925 Z DH0830/USIRG/DIN06/    3/    3
.E OPTF1 20220925 Z DH0830/UDIRG/DIN06/   54/   38
.E OPTF1 20220925 Z DH0830/UGIRG/DIN06/    4/    6
.E OPTF1 20220925 Z DH0830/TWIRG/DIN06/   88/   88
.A SKCF1 20220925 Z DH0824/TAIRP -9999/UGIRP     7/PLIRP -9999/UDIRP     0/USIRP     3/TWIRP -9999/WCIRG -9999
.E EBEF1 20220925 Z DH0836/TAIRP/DIN06/   74/   74
.E EBEF1 20220925 Z DH0836/PLIRP/DIN06/29.90/29.90
.E EBEF1 20220925 Z DH0836/TWIRP/DIN06/   86/   85
.A EBEF1 20220925 Z DH0830/TAIRG    74/UGIRG -9999/PLIRG 29.90/UDIRG -9999/USIRG -9999/TWIRG    86/WCIRG -9999
.A TPAF1 20220925 Z DH0836/TAIRP -9999/UGIRP     7/PLIRP -9999/UDIRP     0/USIRP     5/TWIRP -9999/WCIRG -9999
.E CWBF1 20220925 Z DH0830/TAIRG/DIN06/   76/   76
.E CWBF1 20220925 Z DH0830/PLIRG/DIN06/29.92/29.92
.E CWBF1 20220925 Z DH0830/USIRG/DIN06/    7/    8
.E CWBF1 20220925 Z DH0830/UDIRG/DIN06/   43/   59
.E CWBF1 20220925 Z DH0830/UGIRG/DIN06/   10/   11
.E CWBF1 20220925 Z DH0830/TWIRG/DIN06/   85/   85
.E CKYF1 20220925 Z DH0836/TAIRP/DIN06/   74/   74
.E CKYF1 20220925 Z DH0836/PLIRP/DIN06/29.92/29.92
.E CKYF1 20220925 Z DH0836/USIRP/DIN06/   10/   10
.E CKYF1 20220925 Z DH0836/UDIRP/DIN06/   58/   59
.E CKYF1 20220925 Z DH0836/UGIRP/DIN06/   11/   11
.E CKYF1 20220925 Z DH0836/TWIRP/DIN06/   83/   83
.E CKYF1 20220925 Z DH0830/TAIRG/DIN06/   74/   74
.E CKYF1 20220925 Z DH0830/PLIRG/DIN06/29.91/29.92
.E CKYF1 20220925 Z DH0830/USIRG/DIN06/   10/   10
.E CKYF1 20220925 Z DH0830/UDIRG/DIN06/   59/   58
.E CKYF1 20220925 Z DH0830/UGIRG/DIN06/   11/   11
.E CKYF1 20220925 Z DH0830/TWIRG/DIN06/   83/   83
.A APCF1 20220925 Z DH0836/TAIRG    72/UGIRG     6/PLIRG 29.96/UDIRG   349/USIRG     4/TWIRG    84/WCIRG -9999
.E PACF1 20220925 Z DH0830/USIRG/DIN06/    5/    4
.E PACF1 20220925 Z DH0830/UDIRG/DIN06/   27/   28
.E PACF1 20220925 Z DH0830/UGIRG/DIN06/    7/    6
.E PACF1 20220925 Z DH0830/TWIRG/DIN06/   85/   85
.E PCBF1 20220925 Z DH0830/TAIRG/DIN06/   74/   74
.E PCBF1 20220925 Z DH0830/PLIRG/DIN06/29.97/29.97
.E PCBF1 20220925 Z DH0830/USIRG/DIN06/    7/    7
.E PCBF1 20220925 Z DH0830/UDIRG/DIN06/   46/   56
.E PCBF1 20220925 Z DH0830/UGIRG/DIN06/    7/    7
.E PCBF1 20220925 Z DH0830/TWIRG/DIN06/   85/   85
.E PCLF1 20220925 Z DH0836/TAIRP/DIN06/   76/   76
.E PCLF1 20220925 Z DH0836/PLIRP/DIN06/29.95/29.95
.E PCLF1 20220925 Z DH0836/USIRP/DIN06/    4/    6
.E PCLF1 20220925 Z DH0836/UDIRP/DIN06/    1/    0
.E PCLF1 20220925 Z DH0836/UGIRP/DIN06/    6/    8
.E PCLF1 20220925 Z DH0836/TWIRP/DIN06/   85/   85
.E PCLF1 20220925 Z DH0830/TAIRG/DIN06/   76/   76
.E PCLF1 20220925 Z DH0830/PLIRG/DIN06/29.95/29.95
.E PCLF1 20220925 Z DH0830/USIRG/DIN06/    4/    4
.E PCLF1 20220925 Z DH0830/UDIRG/DIN06/  357/    1
.E PCLF1 20220925 Z DH0830/UGIRG/DIN06/    6/    6
.E PCLF1 20220925 Z DH0830/TWIRG/DIN06/   85/   85
.E EFLA1 20220925 Z DH0836/TAIRP/DIN06/   80/   80
.A EFLA1 20220925 Z DH0836/TAIRG    80/UGIRG -9999/PLIRG -9999/UDIRG -9999/USIRG -9999/TWIRG -9999/WCIRG -9999/XVIRG 6.20
.E FMOA1 20220925 Z DH0836/TAIRP/DIN06/   82/   82
.E FMOA1 20220925 Z DH0836/PLIRP/DIN06/29.95/29.95
.E FMOA1 20220925 Z DH0830/TAIRG/DIN06/   82/   82
.E FMOA1 20220925 Z DH0830/PLIRG/DIN06/29.95/29.95
.E DILA1 20220925 Z DH0830/TAIRG/DIN06/   82/   82
.E DILA1 20220925 Z DH0830/PLIRG/DIN06/29.93/29.93
.E DILA1 20220925 Z DH0830/USIRG/DIN06/    4/    4
.E DILA1 20220925 Z DH0830/UDIRG/DIN06/  144/  143
.E DILA1 20220925 Z DH0830/UGIRG/DIN06/    6/    6
.E DILA1 20220925 Z DH0830/TWIRG/DIN06/   84/   84
.E MBPA1 20220925 Z DH0836/TAIRP/DIN06/   74/   75
.A MBPA1 20220925 Z DH0836/TAIRG    74/UGIRG -9999/PLIRG -9999/UDIRG -9999/USIRG -9999/TWIRG -9999/WCIRG -9999/XVIRG 6.20
.E MCGA1 20220925 Z DH0836/TAIRP/DIN06/   74/   74
.E MCGA1 20220925 Z DH0836/PLIRP/DIN06/29.96/29.96
.E MCGA1 20220925 Z DH0836/USIRP/DIN06/    1/    2
.E MCGA1 20220925 Z DH0836/UDIRP/DIN06/  312/  329
.E MCGA1 20220925 Z DH0836/UGIRP/DIN06/    2/    3
.E MCGA1 20220925 Z DH0836/TWIRP/DIN06/   83/   83
.E MCGA1 20220925 Z DH0830/TAIRG/DIN06/   74/   74
.E MCGA1 20220925 Z DH0830/PLIRG/DIN06/29.96/29.96
.E MCGA1 20220925 Z DH0830/USIRG/DIN06/    2/    1
.E MCGA1 20220925 Z DH0830/UDIRG/DIN06/  311/  312
.E MCGA1 20220925 Z DH0830/UGIRG/DIN06/    4/    2
.E MCGA1 20220925 Z DH0830/TWIRG/DIN06/   83/   83
.E PTOA1 20220925 Z DH0836/TAIRP/DIN06/   76/   76
.E PTOA1 20220925 Z DH0830/TAIRG/DIN06/   76/   76
.E PTOA1 20220925 Z DH0830/XVIRG/DIN06/6.20/6.20
.E OBLA1 20220925 Z DH0836/TAIRP/DIN06/   75/   75
.E OBLA1 20220925 Z DH0836/PLIRP/DIN06/29.92/29.92
.E OBLA1 20220925 Z DH0836/TWIRP/DIN06/   85/   85
.E OBLA1 20220925 Z DH0830/TAIRG/DIN06/   75/   75
.E OBLA1 20220925 Z DH0830/PLIRG/DIN06/29.92/29.92
.E OBLA1 20220925 Z DH0830/WCIRG/DIN06/25860/26400
.E OBLA1 20220925 Z DH0830/TWIRG/DIN06/   85/   85
.A PTBM6 20220925 Z DH0830/TAIRG    81/UGIRG -9999/PLIRG 29.93/UDIRG -9999/USIRG -9999/TWIRG -9999/WCIRG -9999
.E PNLM6 20220925 Z DH0836/TWIRP/DIN06/   85/   85
.E PNLM6 20220925 Z DH0830/TWIRG/DIN06/   85/   85
.E WYCM6 20220925 Z DH0830/TAIRG/DIN06/   82/   81
.E WYCM6 20220925 Z DH0830/PLIRG/DIN06/29.96/29.96
.E WYCM6 20220925 Z DH0830/USIRG/DIN06/    2/    2
.E WYCM6 20220925 Z DH0830/UDIRG/DIN06/  320/  294
.E WYCM6 20220925 Z DH0830/UGIRG/DIN06/    3/    2
.E WYCM6 20220925 Z DH0830/TWIRG/DIN06/   84/   84
.E PILL1 20220925 Z DH0836/TAIRP/DIN06/   79/   79
.E PILL1 20220925 Z DH0836/PLIRP/DIN06/29.94/29.94
.E PILL1 20220925 Z DH0836/USIRP/DIN06/    3/    2
.E PILL1 20220925 Z DH0836/UDIRP/DIN06/   89/   88
.E PILL1 20220925 Z DH0836/UGIRP/DIN06/    4/    3
.E PILL1 20220925 Z DH0836/TWIRP/DIN06/   84/   84
.E PILL1 20220925 Z DH0830/TAIRG/DIN06/   79/   79
.E PILL1 20220925 Z DH0830/PLIRG/DIN06/29.94/29.94
.E PILL1 20220925 Z DH0830/USIRG/DIN06/    3/    3
.E PILL1 20220925 Z DH0830/UDIRG/DIN06/   83/   89
.E PILL1 20220925 Z DH0830/UGIRG/DIN06/    3/    4
.E PILL1 20220925 Z DH0830/TWIRG/DIN06/   84/   84
.A PSTL1 20220925 Z DH0830/TAIRG    84/UGIRG -9999/PLIRG 29.88/UDIRG -9999/USIRG -9999/TWIRG    86/WCIRG -9999
.E SHBL1 20220925 Z DH0830/TAIRG/DIN06/   81/   81
.E SHBL1 20220925 Z DH0830/PLIRG/DIN06/29.96/29.95
.E SHBL1 20220925 Z DH0830/USIRG/DIN06/    4/    4
.E SHBL1 20220925 Z DH0830/UDIRG/DIN06/  134/  134
.E SHBL1 20220925 Z DH0830/UGIRG/DIN06/    5/    5
.E SHBL1 20220925 Z DH0830/TWIRG/DIN06/   84/   84
.E GISL1 20220925 Z DH0836/TAIRP/DIN06/   82/   82
.E GISL1 20220925 Z DH0836/PLIRP/DIN06/29.94/29.94
.E GISL1 20220925 Z DH0836/USIRP/DIN06/    4/    3
.E GISL1 20220925 Z DH0836/UDIRP/DIN06/  110/  115
.E GISL1 20220925 Z DH0836/UGIRP/DIN06/    7/    7
.E GISL1 20220925 Z DH0836/TWIRP/DIN06/   88/   88
.A GISL1 20220925 Z DH0836/TAIRG    82/UGIRG     7/PLIRG 29.94/UDIRG   110/USIRG     4/TWIRG    88/WCIRG -9999
.E NWCL1 20220925 Z DH0830/TAIRG/DIN06/   80/   80
.E NWCL1 20220925 Z DH0830/PLIRG/DIN06/29.93/29.93
.E NWCL1 20220925 Z DH0830/USIRG/DIN06/    2/    2
.E NWCL1 20220925 Z DH0830/UDIRG/DIN06/  189/  189
.E NWCL1 20220925 Z DH0830/UGIRG/DIN06/    3/    3
.E NWCL1 20220925 Z DH0830/TWIRG/DIN06/   92/   92
.E CARL1 20220925 Z DH0836/TWIRP/DIN06/   85/   85
.E BYGL1 20220925 Z DH0836/TAIRP/DIN06/   77/   76
.E BYGL1 20220925 Z DH0836/PLIRP/DIN06/29.95/29.95
.E BYGL1 20220925 Z DH0836/USIRP/DIN06/    1/    0
.E BYGL1 20220925 Z DH0836/UDIRP/DIN06/  296/  295
.E BYGL1 20220925 Z DH0836/UGIRP/DIN06/    2/    2
.E BYGL1 20220925 Z DH0836/TWIRP/DIN06/   86/   86
.E BYGL1 20220925 Z DH0830/TAIRG/DIN06/   77/   77
.E BYGL1 20220925 Z DH0830/PLIRG/DIN06/29.95/29.95
.E BYGL1 20220925 Z DH0830/USIRG/DIN06/    0/    1
.E BYGL1 20220925 Z DH0830/UDIRG/DIN06/  282/  296
.E BYGL1 20220925 Z DH0830/UGIRG/DIN06/    1/    2
.E BYGL1 20220925 Z DH0830/TWIRG/DIN06/   86/   86
.E TESL1 20220925 Z DH0836/TAIRP/DIN06/   78/   78
.E TESL1 20220925 Z DH0836/PLIRP/DIN06/29.95/29.95
.E TESL1 20220925 Z DH0836/USIRP/DIN06/    2/    1
.E TESL1 20220925 Z DH0836/UDIRP/DIN06/   49/   46
.E TESL1 20220925 Z DH0836/UGIRP/DIN06/    3/    2
.E TESL1 20220925 Z DH0836/TWIRP/DIN06/   85/   85
.E TESL1 20220925 Z DH0830/TAIRG/DIN06/   79/   78
.E TESL1 20220925 Z DH0830/PLIRG/DIN06/29.95/29.95
.E TESL1 20220925 Z DH0830/USIRG/DIN06/    2/    2
.E TESL1 20220925 Z DH0830/UDIRG/DIN06/   30/   49
.E TESL1 20220925 Z DH0830/UGIRG/DIN06/    3/    3
.E TESL1 20220925 Z DH0830/TWIRG/DIN06/   85/   85
.E AMRL1 20220925 Z DH0830/TAIRG/DIN06/   81/   81
.E AMRL1 20220925 Z DH0830/PLIRG/DIN06/29.94/29.94
.E AMRL1 20220925 Z DH0830/USIRG/DIN06/    2/    3
.E AMRL1 20220925 Z DH0830/UDIRG/DIN06/  335/  311
.E AMRL1 20220925 Z DH0830/UGIRG/DIN06/    3/    4
.E AMRL1 20220925 Z DH0830/TWIRG/DIN06/   86/   86
.E EINL1 20220925 Z DH0836/TAIRP/DIN06/   83/   83
.E EINL1 20220925 Z DH0836/PLIRP/DIN06/29.93/29.93
.E EINL1 20220925 Z DH0836/USIRP/DIN06/   10/    9
.E EINL1 20220925 Z DH0836/UDIRP/DIN06/  306/  317
.E EINL1 20220925 Z DH0836/UGIRP/DIN06/   11/   11
.E EINL1 20220925 Z DH0836/TWIRP/DIN06/   85/   85
.E EINL1 20220925 Z DH0830/TAIRG/DIN06/   83/   83
.E EINL1 20220925 Z DH0830/PLIRG/DIN06/29.93/29.93
.E EINL1 20220925 Z DH0830/USIRG/DIN06/    8/   10
.E EINL1 20220925 Z DH0830/UDIRG/DIN06/  303/  306
.E EINL1 20220925 Z DH0830/UGIRG/DIN06/   10/   11
.E EINL1 20220925 Z DH0830/WCIRG/DIN06/14530/14420
.E EINL1 20220925 Z DH0830/TWIRG/DIN06/   85/   85
.E FRWL1 20220925 Z DH0830/USIRG/DIN06/    3/    2
.E FRWL1 20220925 Z DH0830/UDIRG/DIN06/  285/  280
.E FRWL1 20220925 Z DH0830/UGIRG/DIN06/    3/    3
.E LCLL1 20220925 Z DH0836/TAIRP/DIN06/   78/   78
.E LCLL1 20220925 Z DH0836/PLIRP/DIN06/29.96/29.96
.E LCLL1 20220925 Z DH0836/TWIRP/DIN06/   89/   89
.E LCLL1 20220925 Z DH0830/TAIRG/DIN06/   78/   78
.E LCLL1 20220925 Z DH0830/PLIRG/DIN06/29.96/29.96
.E LCLL1 20220925 Z DH0830/TWIRG/DIN06/   89/   89
.E BKTL1 20220925 Z DH0836/TWIRP/DIN06/   90/   90
.E BKTL1 20220925 Z DH0830/TWIRG/DIN06/   90/   90
.E CAPL1 20220925 Z DH0836/TAIRP/DIN06/   81/   81
.E CAPL1 20220925 Z DH0836/PLIRP/DIN06/29.94/29.94
.E CAPL1 20220925 Z DH0836/USIRP/DIN06/    6/    7
.E CAPL1 20220925 Z DH0836/UDIRP/DIN06/  295/  298
.E CAPL1 20220925 Z DH0836/UGIRP/DIN06/    7/    7
.E CAPL1 20220925 Z DH0836/TWIRP/DIN06/   87/   87
.E CAPL1 20220925 Z DH0830/TAIRG/DIN06/   81/   81
.E CAPL1 20220925 Z DH0830/PLIRG/DIN06/29.94/29.94
.E CAPL1 20220925 Z DH0830/USIRG/DIN06/    6/    6
.E CAPL1 20220925 Z DH0830/UDIRG/DIN06/  304/  295
.E CAPL1 20220925 Z DH0830/UGIRG/DIN06/    7/    7
.E CAPL1 20220925 Z DH0830/TWIRG/DIN06/   87/   87
.E PORT2 20220925 Z DH0836/TAIRP/DIN06/   80/   80
.E PORT2 20220925 Z DH0836/PLIRP/DIN06/29.94/29.94
.E PORT2 20220925 Z DH0836/USIRP/DIN06/    5/    4
.E PORT2 20220925 Z DH0836/UDIRP/DIN06/  248/  250
.E PORT2 20220925 Z DH0836/UGIRP/DIN06/    6/    5
.E PORT2 20220925 Z DH0836/TWIRP/DIN06/   87/   87
.E PORT2 20220925 Z DH0830/TAIRG/DIN06/   81/   80
.E PORT2 20220925 Z DH0830/PLIRG/DIN06/29.94/29.94
.E PORT2 20220925 Z DH0830/USIRG/DIN06/    5/    5
.E PORT2 20220925 Z DH0830/UDIRG/DIN06/  239/  248
.E PORT2 20220925 Z DH0830/UGIRG/DIN06/    7/    6
.E PORT2 20220925 Z DH0830/TWIRG/DIN06/   87/   87
.E MGPT2 20220925 Z DH0836/PLIRP/DIN06/29.93/29.93
.E MGPT2 20220925 Z DH0836/TWIRP/DIN06/   86/   86
.E MGPT2 20220925 Z DH0830/TAIRG/DIN06/   78/-9999
.E MGPT2 20220925 Z DH0830/PLIRG/DIN06/29.93/29.93
.E MGPT2 20220925 Z DH0830/WCIRG/DIN06/32000/31970
.E MGPT2 20220925 Z DH0830/TWIRG/DIN06/   86/   86
.E NCHT2 20220925 Z DH0836/TAIRP/DIN06/   79/   79
.E NCHT2 20220925 Z DH0836/PLIRP/DIN06/29.93/29.93
.E NCHT2 20220925 Z DH0836/USIRP/DIN06/    2/    2
.E NCHT2 20220925 Z DH0836/UDIRP/DIN06/  246/  263
.E NCHT2 20220925 Z DH0836/UGIRP/DIN06/    3/    4
.E NCHT2 20220925 Z DH0836/TWIRP/DIN06/   85/   85
.E NCHT2 20220925 Z DH0830/TAIRG/DIN06/   79/   79
.E NCHT2 20220925 Z DH0830/PLIRG/DIN06/29.93/29.93
.E NCHT2 20220925 Z DH0830/USIRG/DIN06/    3/    2
.E NCHT2 20220925 Z DH0830/UDIRG/DIN06/  262/  246
.E NCHT2 20220925 Z DH0830/UGIRG/DIN06/    4/    3
.E NCHT2 20220925 Z DH0830/TWIRG/DIN06/   85/   85
.E HIST2 20220925 Z DH0836/TAIRP/DIN06/   77/   77
.E HIST2 20220925 Z DH0836/PLIRP/DIN06/29.93/29.93
.E HIST2 20220925 Z DH0836/USIRP/DIN06/    2/    2
.E HIST2 20220925 Z DH0836/UDIRP/DIN06/  306/  311
.E HIST2 20220925 Z DH0836/UGIRP/DIN06/    4/    3
.E HIST2 20220925 Z DH0836/TWIRP/DIN06/   87/   88
.A HIST2 20220925 Z DH0830/TAIRG    77/UGIRG     3/PLIRG 29.93/UDIRG   317/USIRG     2/TWIRG    87/WCIRG -9999
.A TXPT2 20220925 Z DH0836/TAIRG    78/UGIRG     7/PLIRG 29.91/UDIRG   273/USIRG     6/TWIRG    87/WCIRG -9999
.E RLOT2 20220925 Z DH0836/TAIRP/DIN06/   80/   80
.E RLOT2 20220925 Z DH0836/PLIRP/DIN06/29.93/29.93
.E RLOT2 20220925 Z DH0836/USIRP/DIN06/    2/    2
.E RLOT2 20220925 Z DH0836/UDIRP/DIN06/  252/  258
.E RLOT2 20220925 Z DH0836/UGIRP/DIN06/    3/    3
.E RLOT2 20220925 Z DH0836/TWIRP/DIN06/   87/   87
.E RLOT2 20220925 Z DH0830/TAIRG/DIN06/   80/   80
.E RLOT2 20220925 Z DH0830/PLIRG/DIN06/29.93/29.93
.E RLOT2 20220925 Z DH0830/USIRG/DIN06/    2/    2
.E RLOT2 20220925 Z DH0830/UDIRG/DIN06/  274/  252
.E RLOT2 20220925 Z DH0830/UGIRG/DIN06/    3/    3
.E RLOT2 20220925 Z DH0830/TWIRG/DIN06/   87/   87
.E EPTT2 20220925 Z DH0836/TAIRP/DIN06/   78/   78
.E EPTT2 20220925 Z DH0836/PLIRP/DIN06/29.93/29.93
.E EPTT2 20220925 Z DH0836/USIRP/DIN06/    4/    4
.E EPTT2 20220925 Z DH0836/UDIRP/DIN06/  277/  278
.E EPTT2 20220925 Z DH0836/UGIRP/DIN06/    5/    5
.E EPTT2 20220925 Z DH0836/TWIRP/DIN06/   87/   87
.E EPTT2 20220925 Z DH0830/TAIRG/DIN06/   78/   78
.E EPTT2 20220925 Z DH0830/PLIRG/DIN06/29.94/29.93
.E EPTT2 20220925 Z DH0830/USIRG/DIN06/    5/    4
.E EPTT2 20220925 Z DH0830/UDIRG/DIN06/  266/  277
.E EPTT2 20220925 Z DH0830/UGIRG/DIN06/    6/    5
.E EPTT2 20220925 Z DH0830/WCIRG/DIN06/31120/31120
.E EPTT2 20220925 Z DH0830/TWIRG/DIN06/   87/   87
.A GNJT2 20220925 Z DH0830/TAIRG    82/UGIRG     5/PLIRG 29.91/UDIRG   201/USIRG     3/TWIRG    87/WCIRG -9999
.E GTOT2 20220925 Z DH0836/TAIRP/DIN06/   82/   82
.E GTOT2 20220925 Z DH0836/PLIRP/DIN06/29.93/29.93
.E GTOT2 20220925 Z DH0836/USIRP/DIN06/    3/    2
.E GTOT2 20220925 Z DH0836/UDIRP/DIN06/  248/  241
.E GTOT2 20220925 Z DH0836/UGIRP/DIN06/    4/    4
.E GTOT2 20220925 Z DH0836/TWIRP/DIN06/   89/   89
.E GTOT2 20220925 Z DH0830/TAIRG/DIN06/   82/   82
.E GTOT2 20220925 Z DH0830/PLIRG/DIN06/29.93/29.93
.E GTOT2 20220925 Z DH0830/USIRG/DIN06/    3/    3
.E GTOT2 20220925 Z DH0830/UDIRG/DIN06/  243/  248
.E GTOT2 20220925 Z DH0830/UGIRG/DIN06/    5/    4
.E GTOT2 20220925 Z DH0830/TWIRG/DIN06/   89/   89
.E GRRT2 20220925 Z DH0836/TAIRP/DIN06/   82/   82
.E GRRT2 20220925 Z DH0836/PLIRP/DIN06/29.93/29.93
.E GRRT2 20220925 Z DH0836/USIRP/DIN06/    6/    6
.E GRRT2 20220925 Z DH0836/UDIRP/DIN06/  208/  208
.E GRRT2 20220925 Z DH0836/UGIRP/DIN06/    8/    7
.E GRRT2 20220925 Z DH0836/TWIRP/DIN06/   87/   87
.E GRRT2 20220925 Z DH0830/TAIRG/DIN06/   82/   82
.E GRRT2 20220925 Z DH0830/PLIRG/DIN06/29.93/29.93
.E GRRT2 20220925 Z DH0830/USIRG/DIN06/    6/    6
.E GRRT2 20220925 Z DH0830/UDIRG/DIN06/  203/  208
.E GRRT2 20220925 Z DH0830/UGIRG/DIN06/    8/    8
.E GRRT2 20220925 Z DH0830/TWIRG/DIN06/   87/   87
.E LUIT2 20220925 Z DH0836/TAIRP/DIN06/   82/   82
.E LUIT2 20220925 Z DH0836/PLIRP/DIN06/29.93/29.93
.E LUIT2 20220925 Z DH0836/TWIRP/DIN06/   86/   86
.E LUIT2 20220925 Z DH0830/TAIRG/DIN06/   82/   82
.E LUIT2 20220925 Z DH0830/PLIRG/DIN06/29.93/29.93
.E LUIT2 20220925 Z DH0830/TWIRG/DIN06/   86/   86
.E FPST2 20220925 Z DH0836/TAIRP/DIN06/   83/   83
.E FPST2 20220925 Z DH0836/PLIRP/DIN06/29.91/29.91
.E FPST2 20220925 Z DH0836/USIRP/DIN06/   10/   10
.E FPST2 20220925 Z DH0836/UDIRP/DIN06/  184/  176
.E FPST2 20220925 Z DH0836/UGIRP/DIN06/   12/   11
.E FPST2 20220925 Z DH0836/TWIRP/DIN06/   86/   86
.E FPST2 20220925 Z DH0830/TAIRG/DIN06/   83/   83
.E FPST2 20220925 Z DH0830/PLIRG/DIN06/29.91/29.91
.E FPST2 20220925 Z DH0830/USIRG/DIN06/   10/   10
.E FPST2 20220925 Z DH0830/UDIRG/DIN06/  182/  184
.E FPST2 20220925 Z DH0830/UGIRG/DIN06/   12/   12
.E FPST2 20220925 Z DH0830/TWIRG/DIN06/   86/   86
.E SGNT2 20220925 Z DH0836/TAIRP/DIN06/   83/   83
.E SGNT2 20220925 Z DH0836/PLIRP/DIN06/29.93/29.93
.E SGNT2 20220925 Z DH0836/USIRP/DIN06/    8/    9
.E SGNT2 20220925 Z DH0836/UDIRP/DIN06/  173/  177
.E SGNT2 20220925 Z DH0836/UGIRP/DIN06/   10/   11
.E SGNT2 20220925 Z DH0836/TWIRP/DIN06/   87/   87
.E SGNT2 20220925 Z DH0830/TAIRG/DIN06/   83/   83
.E SGNT2 20220925 Z DH0830/PLIRG/DIN06/29.93/29.93
.E SGNT2 20220925 Z DH0830/USIRG/DIN06/    9/    8
.E SGNT2 20220925 Z DH0830/UDIRG/DIN06/  177/  173
.E SGNT2 20220925 Z DH0830/UGIRG/DIN06/   11/   10
.E SGNT2 20220925 Z DH0830/TWIRG/DIN06/   87/   87
.E SDRT2 20220925 Z DH0830/TAIRG/DIN06/   82/   81
.E SDRT2 20220925 Z DH0830/PLIRG/DIN06/29.94/29.94
.E SDRT2 20220925 Z DH0830/USIRG/DIN06/    4/    3
.E SDRT2 20220925 Z DH0830/UDIRG/DIN06/  111/   87
.E SDRT2 20220925 Z DH0830/UGIRG/DIN06/    6/    5
.E SDRT2 20220925 Z DH0830/TWIRG/DIN06/   85/   85
.E EMAT2 20220925 Z DH0836/TAIRP/DIN06/   83/   83
.E EMAT2 20220925 Z DH0836/PLIRP/DIN06/29.92/29.92
.E EMAT2 20220925 Z DH0836/USIRP/DIN06/    9/    6
.E EMAT2 20220925 Z DH0836/UDIRP/DIN06/  151/  149
.E EMAT2 20220925 Z DH0836/UGIRP/DIN06/   11/   10
.E EMAT2 20220925 Z DH0836/TWIRP/DIN06/   84/   84
.E EMAT2 20220925 Z DH0830/TAIRG/DIN06/   83/   83
.E EMAT2 20220925 Z DH0830/PLIRG/DIN06/29.93/29.92
.E EMAT2 20220925 Z DH0830/USIRG/DIN06/    6/    9
.E EMAT2 20220925 Z DH0830/UDIRG/DIN06/  144/  151
.E EMAT2 20220925 Z DH0830/UGIRG/DIN06/    9/   11
.E EMAT2 20220925 Z DH0830/TWIRG/DIN06/   84/   84
.E VCAT2 20220925 Z DH0836/TAIRP/DIN06/   82/   82
.E VCAT2 20220925 Z DH0836/PLIRP/DIN06/29.93/29.93
.E VCAT2 20220925 Z DH0836/USIRP/DIN06/    4/    4
.E VCAT2 20220925 Z DH0836/UDIRP/DIN06/  181/  183
.E VCAT2 20220925 Z DH0836/UGIRP/DIN06/    7/    5
.E VCAT2 20220925 Z DH0836/TWIRP/DIN06/   85/   85
.E VCAT2 20220925 Z DH0830/TAIRG/DIN06/   82/   82
.E VCAT2 20220925 Z DH0830/PLIRG/DIN06/29.94/29.93
.E VCAT2 20220925 Z DH0830/USIRG/DIN06/    5/    4
.E VCAT2 20220925 Z DH0830/UDIRG/DIN06/  181/  181
.E VCAT2 20220925 Z DH0830/UGIRG/DIN06/    7/    7
.E VCAT2 20220925 Z DH0830/TWIRG/DIN06/   85/   85
.E PCNT2 20220925 Z DH0836/TAIRP/DIN06/   83/   83
.E PCNT2 20220925 Z DH0836/PLIRP/DIN06/29.92/29.92
.E PCNT2 20220925 Z DH0836/USIRP/DIN06/   10/    9
.E PCNT2 20220925 Z DH0836/UDIRP/DIN06/  132/  134
.E PCNT2 20220925 Z DH0836/UGIRP/DIN06/   12/   12
.E PCNT2 20220925 Z DH0836/TWIRP/DIN06/   92/   92
.E MBET2 20220925 Z DH0830/TAIRG/DIN06/   84/   83
.E MBET2 20220925 Z DH0830/PLIRG/DIN06/29.89/29.89
.E MBET2 20220925 Z DH0830/USIRG/DIN06/   10/   11
.E MBET2 20220925 Z DH0830/UDIRG/DIN06/  201/  211
.E MBET2 20220925 Z DH0830/UGIRG/DIN06/   13/   12
.E MBET2 20220925 Z DH0830/TWIRG/DIN06/   86/   86
.E AWRT2 20220925 Z DH0830/TAIRG/DIN06/   83/   83
.E AWRT2 20220925 Z DH0830/PLIRG/DIN06/29.91/29.91
.E AWRT2 20220925 Z DH0830/USIRG/DIN06/    6/    6
.E AWRT2 20220925 Z DH0830/UDIRG/DIN06/  174/  176
.E AWRT2 20220925 Z DH0830/UGIRG/DIN06/    9/    9
.E AWRT2 20220925 Z DH0830/TWIRG/DIN06/   85/   85
.E RCPT2 20220925 Z DH0836/TAIRP/DIN06/   84/   84
.E RCPT2 20220925 Z DH0836/PLIRP/DIN06/29.88/29.88
.E RCPT2 20220925 Z DH0836/USIRP/DIN06/   11/   11
.E RCPT2 20220925 Z DH0836/UDIRP/DIN06/  173/  176
.E RCPT2 20220925 Z DH0836/UGIRP/DIN06/   13/   13
.E RCPT2 20220925 Z DH0836/TWIRP/DIN06/   90/   90
.E RCPT2 20220925 Z DH0830/TAIRG/DIN06/   84/   84
.E RCPT2 20220925 Z DH0830/PLIRG/DIN06/29.88/29.88
.E RCPT2 20220925 Z DH0830/USIRG/DIN06/   11/   11
.E RCPT2 20220925 Z DH0830/UDIRG/DIN06/  165/  173
.E RCPT2 20220925 Z DH0830/UGIRG/DIN06/   13/   13
.E RCPT2 20220925 Z DH0830/TWIRG/DIN06/   90/   90
.E LQAT2 20220925 Z DH0830/TAIRG/DIN06/-9999/   84
.E LQAT2 20220925 Z DH0830/PLIRG/DIN06/29.80/29.80
.E LQAT2 20220925 Z DH0830/TWIRG/DIN06/   86/-9999
.E LQAT2 20220925 Z DH0830/XVIRG/DIN06/6.20/6.20
.E VTBT2 20220925 Z DH0830/TAIRG/DIN06/   80/   79
.E VTBT2 20220925 Z DH0830/PLIRG/DIN06/29.93/29.93
.E VTBT2 20220925 Z DH0830/WCIRG/DIN06/48250/48100
.E VTBT2 20220925 Z DH0830/TWIRG/DIN06/   87/   87
.E VTBT2 20220925 Z DH0830/XVIRG/DIN06/6.20/6.20
.E HIVT2 20220925 Z DH0830/TAIRG/DIN06/   84/   84
.E HIVT2 20220925 Z DH0830/PLIRG/DIN06/29.91/29.91
.E HIVT2 20220925 Z DH0830/XVIRG/DIN06/6.20/6.20
.E UTVT2 20220925 Z DH0830/TAIRG/DIN06/   84/   84
.E UTVT2 20220925 Z DH0830/PLIRG/DIN06/29.88/29.88
.E UTVT2 20220925 Z DH0830/XVIRG/DIN06/6.20/6.20
.E RTAT2 20220925 Z DH0836/TAIRP/DIN06/   83/   83
.E RTAT2 20220925 Z DH0836/PLIRP/DIN06/29.90/29.90
.E RTAT2 20220925 Z DH0836/USIRP/DIN06/    7/    4
.E RTAT2 20220925 Z DH0836/UDIRP/DIN06/  161/  165
.E RTAT2 20220925 Z DH0836/UGIRP/DIN06/   12/   11
.E RTAT2 20220925 Z DH0836/TWIRP/DIN06/   87/   87
.E RTAT2 20220925 Z DH0830/TAIRG/DIN06/   83/   83
.E RTAT2 20220925 Z DH0830/PLIRG/DIN06/29.90/29.90
.E RTAT2 20220925 Z DH0830/USIRG/DIN06/    6/    7
.E RTAT2 20220925 Z DH0830/UDIRG/DIN06/  152/  161
.E RTAT2 20220925 Z DH0830/UGIRG/DIN06/   11/   12
.E RTAT2 20220925 Z DH0830/TWIRG/DIN06/   87/   87
.E ANPT2 20220925 Z DH0836/TAIRP/DIN06/   84/   84
.E ANPT2 20220925 Z DH0836/PLIRP/DIN06/29.90/29.90
.E ANPT2 20220925 Z DH0836/USIRP/DIN06/   14/   13
.E ANPT2 20220925 Z DH0836/UDIRP/DIN06/  136/  139
.E ANPT2 20220925 Z DH0836/UGIRP/DIN06/   18/   15
.E ANPT2 20220925 Z DH0836/TWIRP/DIN06/   86/   86
.A ANPT2 20220925 Z DH0836/TAIRG    84/UGIRG    18/PLIRG 29.90/UDIRG   136/USIRG    14/TWIRG    86/WCIRG -9999
.E NUET2 20220925 Z DH0836/PLIRP/DIN06/29.91/29.91
.E NUET2 20220925 Z DH0836/TWIRP/DIN06/   86/   86
.E NUET2 20220925 Z DH0830/PLIRG/DIN06/29.91/29.91
.E NUET2 20220925 Z DH0830/TWIRG/DIN06/   86/   86
.E MHBT2 20220925 Z DH0830/TAIRG/DIN06/   83/   83
.E MHBT2 20220925 Z DH0830/PLIRG/DIN06/29.92/29.92
.E MHBT2 20220925 Z DH0830/XVIRG/DIN06/6.20/6.20
.E TLVT2 20220925 Z DH0830/TAIRG/DIN06/   81/   80
.E TLVT2 20220925 Z DH0830/PLIRG/DIN06/29.92/29.92
.E TLVT2 20220925 Z DH0830/XVIRG/DIN06/6.20/6.20
.E TAQT2 20220925 Z DH0836/TAIRG/DIN06/   81/   81
.E TAQT2 20220925 Z DH0836/PLIRG/DIN06/29.91/29.91
.E TXVT2 20220925 Z DH0830/TAIRG/DIN06/   81/   81
.E TXVT2 20220925 Z DH0830/PLIRG/DIN06/29.93/29.92
.E TXVT2 20220925 Z DH0830/XVIRG/DIN06/6.20/6.20
.E PACT2 20220925 Z DH0836/TAIRP/DIN06/   83/   83
.E PACT2 20220925 Z DH0836/PLIRP/DIN06/29.91/29.90
.E PACT2 20220925 Z DH0836/USIRP/DIN06/    5/    5
.E PACT2 20220925 Z DH0836/UDIRP/DIN06/  131/  132
.E PACT2 20220925 Z DH0836/UGIRP/DIN06/   10/   10
.E PACT2 20220925 Z DH0836/TWIRP/DIN06/   86/   86
.E PACT2 20220925 Z DH0830/TAIRG/DIN06/   84/   83
.E PACT2 20220925 Z DH0830/PLIRG/DIN06/29.91/29.91
.E PACT2 20220925 Z DH0830/USIRG/DIN06/    7/    5
.E PACT2 20220925 Z DH0830/UDIRG/DIN06/  137/  131
.E PACT2 20220925 Z DH0830/UGIRG/DIN06/   10/   10
.E PACT2 20220925 Z DH0830/TWIRG/DIN06/   86/   86
.E IRDT2 20220925 Z DH0836/TAIRP/DIN06/   83/   83
.E IRDT2 20220925 Z DH0836/PLIRP/DIN06/29.91/29.91
.E IRDT2 20220925 Z DH0836/USIRP/DIN06/    9/    9
.E IRDT2 20220925 Z DH0836/UDIRP/DIN06/  185/  183
.E IRDT2 20220925 Z DH0836/UGIRP/DIN06/   12/   11
.E IRDT2 20220925 Z DH0836/TWIRP/DIN06/   85/   85
.E IRDT2 20220925 Z DH0830/TAIRG/DIN06/   83/   83
.E IRDT2 20220925 Z DH0830/PLIRG/DIN06/29.92/29.91
.E IRDT2 20220925 Z DH0830/USIRG/DIN06/    9/    9
.E IRDT2 20220925 Z DH0830/UDIRG/DIN06/  182/  185
.E IRDT2 20220925 Z DH0830/UGIRG/DIN06/   11/   12
.E IRDT2 20220925 Z DH0830/TWIRG/DIN06/   85/   85
.E BABT2 20220925 Z DH0836/TAIRP/DIN06/   83/   82
.E BABT2 20220925 Z DH0836/PLIRP/DIN06/29.93/29.93
.E BABT2 20220925 Z DH0836/USIRP/DIN06/   10/    9
.E BABT2 20220925 Z DH0836/UDIRP/DIN06/  147/  166
.E BABT2 20220925 Z DH0836/UGIRP/DIN06/   12/   12
.E BABT2 20220925 Z DH0836/TWIRP/DIN06/   85/   85
.E BABT2 20220925 Z DH0830/TAIRG/DIN06/   83/   83
.E BABT2 20220925 Z DH0830/PLIRG/DIN06/29.93/29.93
.E BABT2 20220925 Z DH0830/USIRG/DIN06/    9/   10
.E BABT2 20220925 Z DH0830/UDIRG/DIN06/  147/  147
.E BABT2 20220925 Z DH0830/UGIRG/DIN06/   12/   12
.E BABT2 20220925 Z DH0830/TWIRG/DIN06/   85/   85
.E RSJT2 20220925 Z DH0836/TAIRP/DIN06/   79/   79
.E RSJT2 20220925 Z DH0836/PLIRP/DIN06/29.91/29.91
.E RSJT2 20220925 Z DH0836/USIRP/DIN06/    5/    5
.E RSJT2 20220925 Z DH0836/UDIRP/DIN06/  216/  208
.E RSJT2 20220925 Z DH0836/UGIRP/DIN06/    6/    7
.E RSJT2 20220925 Z DH0836/TWIRP/DIN06/   87/   87
.E RSJT2 20220925 Z DH0830/TAIRG/DIN06/   80/   79
.E RSJT2 20220925 Z DH0830/PLIRG/DIN06/29.91/29.91
.E RSJT2 20220925 Z DH0830/USIRG/DIN06/    6/    5
.E RSJT2 20220925 Z DH0830/UDIRG/DIN06/  209/  216
.E RSJT2 20220925 Z DH0830/UGIRG/DIN06/    7/    6
.E RSJT2 20220925 Z DH0830/TWIRG/DIN06/   87/   87
.E PMNT2 20220925 Z DH0836/TAIRP/DIN06/   79/   79
.E PMNT2 20220925 Z DH0836/PLIRP/DIN06/29.92/29.92
.E PMNT2 20220925 Z DH0830/TAIRG/DIN06/   79/   79
.E PMNT2 20220925 Z DH0830/PLIRG/DIN06/29.92/29.92
.E RLIT2 20220925 Z DH0836/TAIRP/DIN06/   83/   83
.E RLIT2 20220925 Z DH0836/PLIRP/DIN06/29.88/29.88
.E RLIT2 20220925 Z DH0836/USIRP/DIN06/    9/    8
.E RLIT2 20220925 Z DH0836/UDIRP/DIN06/  184/  185
.E RLIT2 20220925 Z DH0836/UGIRP/DIN06/    9/   11
.E RLIT2 20220925 Z DH0836/TWIRP/DIN06/   83/   83
.E RLIT2 20220925 Z DH0830/TAIRG/DIN06/   83/   83
.E RLIT2 20220925 Z DH0830/PLIRG/DIN06/29.88/29.88
.E RLIT2 20220925 Z DH0830/USIRG/DIN06/   10/    9
.E RLIT2 20220925 Z DH0830/UDIRG/DIN06/  177/  184
.E RLIT2 20220925 Z DH0830/UGIRG/DIN06/   13/    9
.E RLIT2 20220925 Z DH0830/TWIRG/DIN06/   84/   83
.E PCGT2 20220925 Z DH0830/TAIRG/DIN06/   83/   82
.E PCGT2 20220925 Z DH0830/PLIRG/DIN06/29.90/29.90
.E PCGT2 20220925 Z DH0830/USIRG/DIN06/    9/    7
.E PCGT2 20220925 Z DH0830/UDIRG/DIN06/  158/  158
.E PCGT2 20220925 Z DH0830/UGIRG/DIN06/   11/    9
.E PCGT2 20220925 Z DH0830/TWIRG/DIN06/   84/   84
.E BZST2 20220925 Z DH0836/TAIRP/DIN06/   83/   83
.E BZST2 20220925 Z DH0836/PLIRP/DIN06/29.88/29.88
.E BZST2 20220925 Z DH0836/USIRP/DIN06/   10/   10
.E BZST2 20220925 Z DH0836/UDIRP/DIN06/  150/  151
.E BZST2 20220925 Z DH0836/UGIRP/DIN06/   14/   12
.E BZST2 20220925 Z DH0836/TWIRP/DIN06/   87/   87
.A BZST2 20220925 Z DH0830/TAIRG    83/UGIRG    14/PLIRG 29.88/UDIRG   149/USIRG    12/TWIRG    87/WCIRG -9999
.E PTIT2 20220925 Z DH0836/TAIRP/DIN06/   81/   81
.E PTIT2 20220925 Z DH0836/PLIRP/DIN06/29.90/29.90
.E PTIT2 20220925 Z DH0836/USIRP/DIN06/    4/    4
.E PTIT2 20220925 Z DH0836/UDIRP/DIN06/  174/  182
.E PTIT2 20220925 Z DH0836/UGIRP/DIN06/    6/    4
.E PTIT2 20220925 Z DH0836/TWIRP/DIN06/   87/   87
.E PTIT2 20220925 Z DH0830/TAIRG/DIN06/   81/   81
.E PTIT2 20220925 Z DH0830/PLIRG/DIN06/29.90/29.90
.E PTIT2 20220925 Z DH0830/USIRG/DIN06/    5/    4
.E PTIT2 20220925 Z DH0830/UDIRG/DIN06/  163/  174
.E PTIT2 20220925 Z DH0830/UGIRG/DIN06/    6/    6
.E PTIT2 20220925 Z DH0830/TWIRG/DIN06/   87/   87
.E CHSV3 20220925 Z DH0830/TAIRG/DIN06/   85/   85
.E CHSV3 20220925 Z DH0830/PLIRG/DIN06/29.84/29.85
.E CHSV3 20220925 Z DH0830/USIRG/DIN06/    2/    2
.E CHSV3 20220925 Z DH0830/UDIRG/DIN06/  101/  129
.E CHSV3 20220925 Z DH0830/UGIRG/DIN06/    5/    4
.E CHSV3 20220925 Z DH0830/TWIRG/DIN06/   85/   85
.E LAMV3 20220925 Z DH0836/TAIRP/DIN06/   80/   80
.E LAMV3 20220925 Z DH0836/PLIRP/DIN06/29.89/29.90
.E LAMV3 20220925 Z DH0836/TWIRP/DIN06/   85/   85
.A LAMV3 20220925 Z DH0830/TAIRG    80/UGIRG -9999/PLIRG 29.89/UDIRG -9999/USIRG -9999/TWIRG    85/WCIRG -9999
.E LTBV3 20220925 Z DH0830/TAIRG/DIN06/   81/   81
.E LTBV3 20220925 Z DH0830/PLIRG/DIN06/29.85/29.85
.E LTBV3 20220925 Z DH0830/USIRG/DIN06/    6/    6
.E LTBV3 20220925 Z DH0830/UDIRG/DIN06/   67/   80
.E LTBV3 20220925 Z DH0830/UGIRG/DIN06/   10/    9
.E LTBV3 20220925 Z DH0830/TWIRG/DIN06/   85/   85
.E CHAV3 20220925 Z DH0836/TAIRP/DIN06/   80/   80
.E CHAV3 20220925 Z DH0836/PLIRP/DIN06/29.87/29.87
.E CHAV3 20220925 Z DH0836/USIRP/DIN06/    4/    4
.E CHAV3 20220925 Z DH0836/UDIRP/DIN06/   86/   84
.E CHAV3 20220925 Z DH0836/UGIRP/DIN06/    5/    5
.E CHAV3 20220925 Z DH0836/TWIRP/DIN06/   85/   85
.E CHAV3 20220925 Z DH0830/TAIRG/DIN06/   80/   80
.E CHAV3 20220925 Z DH0830/PLIRG/DIN06/29.86/29.87
.E CHAV3 20220925 Z DH0830/USIRG/DIN06/    3/    4
.E CHAV3 20220925 Z DH0830/UDIRG/DIN06/   83/   86
.E CHAV3 20220925 Z DH0830/UGIRG/DIN06/    5/    5
.E CHAV3 20220925 Z DH0830/TWIRG/DIN06/   85/   85
.E CLBP4 20220925 Z DH0836/TAIRP/DIN06/   80/   80
.E CLBP4 20220925 Z DH0836/PLIRP/DIN06/29.85/29.85
.E CLBP4 20220925 Z DH0836/TWIRP/DIN06/   84/   84
.E CLBP4 20220925 Z DH0830/TAIRG/DIN06/   81/   80
.E CLBP4 20220925 Z DH0830/PLIRG/DIN06/29.85/29.85
.E CLBP4 20220925 Z DH0830/TWIRG/DIN06/   84/   84
.A ESPP4 20220925 Z DH0830/TAIRG    76/UGIRG     5/PLIRG 29.88/UDIRG    23/USIRG     4/TWIRG    85/WCIRG -9999
.E SJNP4 20220925 Z DH0836/TAIRP/DIN06/   80/   80
.E SJNP4 20220925 Z DH0836/PLIRP/DIN06/29.86/29.86
.E SJNP4 20220925 Z DH0836/USIRP/DIN06/    3/    2
.E SJNP4 20220925 Z DH0836/UDIRP/DIN06/  174/  164
.E SJNP4 20220925 Z DH0836/UGIRP/DIN06/    4/    3
.E SJNP4 20220925 Z DH0836/TWIRP/DIN06/   84/   84
.A SJNP4 20220925 Z DH0836/TAIRG    80/UGIRG     4/PLIRG 29.86/UDIRG   174/USIRG     3/TWIRG    84/WCIRG -9999
.E MGZP4 20220925 Z DH0836/TAIRP/DIN06/   75/   75
.E MGZP4 20220925 Z DH0836/PLIRP/DIN06/29.88/29.88
.E MGZP4 20220925 Z DH0836/USIRP/DIN06/    0/    1
.E MGZP4 20220925 Z DH0836/UDIRP/DIN06/   76/  273
.E MGZP4 20220925 Z DH0836/UGIRP/DIN06/    2/    2
.E MGZP4 20220925 Z DH0836/TWIRP/DIN06/   85/   85
.E MGZP4 20220925 Z DH0830/TAIRG/DIN06/   76/   75
.E MGZP4 20220925 Z DH0830/PLIRG/DIN06/29.88/29.88
.E MGZP4 20220925 Z DH0830/USIRG/DIN06/    2/    0
.E MGZP4 20220925 Z DH0830/UDIRG/DIN06/  139/   76
.E MGZP4 20220925 Z DH0830/UGIRG/DIN06/    4/    2
.E MGZP4 20220925 Z DH0830/TWIRG/DIN06/   85/   85



USA.gov is the U.S. government's official web portal to all federal, state and local government web resources and services.